sensor_id;sensor_type;location;lat;lon;timestamp;temperature;humidity
34768;DHT22;21755;43.608;1.236;2023-08-12T00:01:24;21.70;99.90
34768;DHT22;21755;43.608;1.236;2023-08-12T00:03:51;21.60;99.90
34768;DHT22;21755;43.608;1.236;2023-08-12T00:06:17;21.60;99.90
34768;DHT22;21755;43.608;1.236;2023-08-12T00:08:43;21.50;99.90
34768;DHT22;21755;43.608;1.236;2023-08-12T00:11:09;21.50;99.90
34768;DHT22;21755;43.608;1.236;2023-08-12T00:13:35;21.50;99.90
34768;DHT22;21755;43.608;1.236;2023-08-12T00:16:00;21.50;99.90
34768;DHT22;21755;43.608;1.236;2023-08-12T00:18:26;21.40;1.00
34768;DHT22;21755;43.608;1.236;2023-08-12T00:20:52;21.40;1.00
34768;DHT22;21755;43.608;1.236;2023-08-12T00:23:18;21.40;1.00
34768;DHT22;21755;43.608;1.236;2023-08-12T00:25:44;21.50;1.00
34768;DHT22;21755;43.608;1.236;2023-08-12T00:28:10;21.40;1.00
34768;DHT22;21755;43.608;1.236;2023-08-12T00:30:36;21.40;99.90
34768;DHT22;21755;43.608;1.236;2023-08-12T00:33:02;21.30;99.90
34768;DHT22;21755;43.608;1.236;2023-08-12T00:35:27;21.30;99.90
34768;DHT22;21755;43.608;1.236;2023-08-12T00:37:53;21.20;99.90
34768;DHT22;21755;43.608;1.236;2023-08-12T00:40:19;21.10;1.00
34768;DHT22;21755;43.608;1.236;2023-08-12T00:42:45;21.10;1.00
34768;DHT22;21755;43.608;1.236;2023-08-12T00:45:12;21.00;1.00
34768;DHT22;21755;43.608;1.236;2023-08-12T00:47:38;21.00;1.00
34768;DHT22;21755;43.608;1.236;2023-08-12T00:50:07;20.80;99.90
34768;DHT22;21755;43.608;1.236;2023-08-12T00:52:34;20.80;99.90
34768;DHT22;21755;43.608;1.236;2023-08-12T00:55:00;20.80;99.90
34768;DHT22;21755;43.608;1.236;2023-08-12T00:57:26;20.70;99.90
34768;DHT22;21755;43.608;1.236;2023-08-12T00:59:53;20.70;99.90
34768;DHT22;21755;43.608;1.236;2023-08-12T01:02:20;20.60;99.90
34768;DHT22;21755;43.608;1.236;2023-08-12T01:04:46;20.50;99.90
34768;DHT22;21755;43.608;1.236;2023-08-12T01:07:12;20.50;99.90
34768;DHT22;21755;43.608;1.236;2023-08-12T01:09:38;20.40;99.90
34768;DHT22;21755;43.608;1.236;2023-08-12T01:12:13;20.50;99.90
34768;DHT22;21755;43.608;1.236;2023-08-12T01:14:49;20.50;99.90
34768;DHT22;21755;43.608;1.236;2023-08-12T01:17:16;20.40;99.90
34768;DHT22;21755;43.608;1.236;2023-08-12T01:19:43;20.50;99.90
34768;DHT22;21755;43.608;1.236;2023-08-12T01:22:11;20.50;99.90
34768;DHT22;21755;43.608;1.236;2023-08-12T01:24:39;20.40;99.90
34768;DHT22;21755;43.608;1.236;2023-08-12T01:27:06;20.50;99.90
34768;DHT22;21755;43.608;1.236;2023-08-12T01:29:33;20.30;99.90
34768;DHT22;21755;43.608;1.236;2023-08-12T01:35:03;20.20;99.90
34768;DHT22;21755;43.608;1.236;2023-08-12T01:37:32;20.20;99.90
34768;DHT22;21755;43.608;1.236;2023-08-12T01:40:01;20.10;99.90
34768;DHT22;21755;43.608;1.236;2023-08-12T01:42:32;20.10;1.00
34768;DHT22;21755;43.608;1.236;2023-08-12T01:44:58;20.10;1.00
34768;DHT22;21755;43.608;1.236;2023-08-12T01:47:27;20.10;99.90
34768;DHT22;21755;43.608;1.236;2023-08-12T01:49:53;20.10;1.00
34768;DHT22;21755;43.608;1.236;2023-08-12T01:52:19;20.10;1.00
34768;DHT22;21755;43.608;1.236;2023-08-12T01:54:45;20.00;1.00
34768;DHT22;21755;43.608;1.236;2023-08-12T01:57:10;20.00;1.00
34768;DHT22;21755;43.608;1.236;2023-08-12T01:59:37;20.00;1.00
34768;DHT22;21755;43.608;1.236;2023-08-12T02:02:03;20.00;1.00
34768;DHT22;21755;43.608;1.236;2023-08-12T02:04:30;19.90;1.00
34768;DHT22;21755;43.608;1.236;2023-08-12T02:06:56;19.90;1.00
34768;DHT22;21755;43.608;1.236;2023-08-12T02:09:22;19.80;1.00
34768;DHT22;21755;43.608;1.236;2023-08-12T02:11:48;19.80;1.00
34768;DHT22;21755;43.608;1.236;2023-08-12T02:14:15;19.80;1.00
34768;DHT22;21755;43.608;1.236;2023-08-12T02:16:41;19.90;1.00
34768;DHT22;21755;43.608;1.236;2023-08-12T02:19:07;19.90;1.00
34768;DHT22;21755;43.608;1.236;2023-08-12T02:21:33;19.80;1.00
34768;DHT22;21755;43.608;1.236;2023-08-12T02:23:58;19.80;1.00
34768;DHT22;21755;43.608;1.236;2023-08-12T02:26:24;19.70;1.00
34768;DHT22;21755;43.608;1.236;2023-08-12T02:28:50;19.60;1.00
34768;DHT22;21755;43.608;1.236;2023-08-12T02:31:16;19.60;1.00
34768;DHT22;21755;43.608;1.236;2023-08-12T02:33:43;19.60;1.00
34768;DHT22;21755;43.608;1.236;2023-08-12T02:36:08;19.50;1.00
34768;DHT22;21755;43.608;1.236;2023-08-12T02:38:34;19.50;1.00
34768;DHT22;21755;43.608;1.236;2023-08-12T02:41:00;19.60;1.00
34768;DHT22;21755;43.608;1.236;2023-08-12T02:43:26;19.50;1.00
34768;DHT22;21755;43.608;1.236;2023-08-12T02:45:52;19.40;1.00
34768;DHT22;21755;43.608;1.236;2023-08-12T02:48:18;19.50;1.00
34768;DHT22;21755;43.608;1.236;2023-08-12T02:50:44;19.50;1.00
34768;DHT22;21755;43.608;1.236;2023-08-12T02:53:10;19.50;1.00
34768;DHT22;21755;43.608;1.236;2023-08-12T02:55:36;19.40;1.00
34768;DHT22;21755;43.608;1.236;2023-08-12T02:58:03;19.40;1.00
34768;DHT22;21755;43.608;1.236;2023-08-12T03:00:29;19.40;1.00
34768;DHT22;21755;43.608;1.236;2023-08-12T03:02:55;19.30;1.00
34768;DHT22;21755;43.608;1.236;2023-08-12T03:05:22;19.30;1.00
34768;DHT22;21755;43.608;1.236;2023-08-12T03:07:48;19.30;1.00
34768;DHT22;21755;43.608;1.236;2023-08-12T03:10:14;19.20;1.00
34768;DHT22;21755;43.608;1.236;2023-08-12T03:12:41;19.20;1.00
34768;DHT22;21755;43.608;1.236;2023-08-12T03:15:07;19.20;1.00
34768;DHT22;21755;43.608;1.236;2023-08-12T03:17:33;19.20;1.00
34768;DHT22;21755;43.608;1.236;2023-08-12T03:19:59;19.30;1.00
34768;DHT22;21755;43.608;1.236;2023-08-12T03:22:28;19.30;1.00
34768;DHT22;21755;43.608;1.236;2023-08-12T03:24:53;19.30;1.00
34768;DHT22;21755;43.608;1.236;2023-08-12T03:27:19;19.30;1.00
34768;DHT22;21755;43.608;1.236;2023-08-12T03:29:45;19.40;1.00
34768;DHT22;21755;43.608;1.236;2023-08-12T03:32:11;19.40;1.00
34768;DHT22;21755;43.608;1.236;2023-08-12T03:34:37;19.40;1.00
34768;DHT22;21755;43.608;1.236;2023-08-12T03:37:04;19.50;1.00
34768;DHT22;21755;43.608;1.236;2023-08-12T03:39:30;19.60;1.00
34768;DHT22;21755;43.608;1.236;2023-08-12T03:41:56;19.60;1.00
34768;DHT22;21755;43.608;1.236;2023-08-12T03:44:22;19.60;1.00
34768;DHT22;21755;43.608;1.236;2023-08-12T03:46:47;19.70;1.00
34768;DHT22;21755;43.608;1.236;2023-08-12T03:49:13;19.70;1.00
34768;DHT22;21755;43.608;1.236;2023-08-12T03:51:39;19.70;1.00
34768;DHT22;21755;43.608;1.236;2023-08-12T03:54:05;19.70;1.00
34768;DHT22;21755;43.608;1.236;2023-08-12T03:56:31;19.70;1.00
34768;DHT22;21755;43.608;1.236;2023-08-12T03:58:57;19.80;11.00
34768;DHT22;21755;43.608;1.236;2023-08-12T04:01:23;19.90;22.80
34768;DHT22;21755;43.608;1.236;2023-08-12T04:03:49;20.00;37.80
34768;DHT22;21755;43.608;1.236;2023-08-12T04:06:15;20.10;46.10
34768;DHT22;21755;43.608;1.236;2023-08-12T04:08:41;20.10;42.90
34768;DHT22;21755;43.608;1.236;2023-08-12T04:11:07;20.10;58.00
34768;DHT22;21755;43.608;1.236;2023-08-12T04:13:32;20.20;61.30
34768;DHT22;21755;43.608;1.236;2023-08-12T04:15:58;20.20;65.40
34768;DHT22;21755;43.608;1.236;2023-08-12T04:18:24;20.20;69.30
34768;DHT22;21755;43.608;1.236;2023-08-12T04:20:51;20.20;71.00
34768;DHT22;21755;43.608;1.236;2023-08-12T04:23:18;20.20;73.70
34768;DHT22;21755;43.608;1.236;2023-08-12T04:25:47;20.30;76.40
34768;DHT22;21755;43.608;1.236;2023-08-12T04:28:14;20.30;80.80
34768;DHT22;21755;43.608;1.236;2023-08-12T04:30:42;20.30;81.90
34768;DHT22;21755;43.608;1.236;2023-08-12T04:33:07;20.30;83.70
34768;DHT22;21755;43.608;1.236;2023-08-12T04:35:33;20.30;86.60
34768;DHT22;21755;43.608;1.236;2023-08-12T04:37:59;20.30;89.70
34768;DHT22;21755;43.608;1.236;2023-08-12T04:40:25;20.30;89.10
34768;DHT22;21755;43.608;1.236;2023-08-12T04:42:51;20.30;91.30
34768;DHT22;21755;43.608;1.236;2023-08-12T04:45:17;20.30;91.50
34768;DHT22;21755;43.608;1.236;2023-08-12T04:47:43;20.30;93.60
34768;DHT22;21755;43.608;1.236;2023-08-12T04:50:09;20.30;94.50
34768;DHT22;21755;43.608;1.236;2023-08-12T04:52:36;20.40;96.00
34768;DHT22;21755;43.608;1.236;2023-08-12T04:55:01;20.40;96.80
34768;DHT22;21755;43.608;1.236;2023-08-12T04:57:28;20.40;96.80
34768;DHT22;21755;43.608;1.236;2023-08-12T04:59:54;20.40;97.20
34768;DHT22;21755;43.608;1.236;2023-08-12T05:02:21;20.40;98.60
34768;DHT22;21755;43.608;1.236;2023-08-12T05:04:49;20.40;98.90
34768;DHT22;21755;43.608;1.236;2023-08-12T05:07:15;20.40;99.70
34768;DHT22;21755;43.608;1.236;2023-08-12T05:09:41;20.40;98.60
34768;DHT22;21755;43.608;1.236;2023-08-12T05:12:10;20.40;99.10
34768;DHT22;21755;43.608;1.236;2023-08-12T05:14:37;20.40;99.90
34768;DHT22;21755;43.608;1.236;2023-08-12T05:17:03;20.40;99.50
34768;DHT22;21755;43.608;1.236;2023-08-12T05:19:29;20.40;99.00
34768;DHT22;21755;43.608;1.236;2023-08-12T05:21:55;20.40;98.70
34768;DHT22;21755;43.608;1.236;2023-08-12T05:24:20;20.50;99.50
34768;DHT22;21755;43.608;1.236;2023-08-12T05:26:46;20.40;99.80
34768;DHT22;21755;43.608;1.236;2023-08-12T05:29:12;20.50;99.90
34768;DHT22;21755;43.608;1.236;2023-08-12T05:31:38;20.50;99.90
34768;DHT22;21755;43.608;1.236;2023-08-12T05:34:04;20.50;99.90
34768;DHT22;21755;43.608;1.236;2023-08-12T05:36:30;20.60;99.40
34768;DHT22;21755;43.608;1.236;2023-08-12T05:38:56;20.70;99.40
34768;DHT22;21755;43.608;1.236;2023-08-12T05:41:22;20.70;99.60
34768;DHT22;21755;43.608;1.236;2023-08-12T05:43:48;20.70;98.70
34768;DHT22;21755;43.608;1.236;2023-08-12T05:46:14;20.80;98.40
34768;DHT22;21755;43.608;1.236;2023-08-12T05:48:40;20.90;97.90
34768;DHT22;21755;43.608;1.236;2023-08-12T05:51:06;21.00;96.80
34768;DHT22;21755;43.608;1.236;2023-08-12T05:53:32;21.00;95.60
34768;DHT22;21755;43.608;1.236;2023-08-12T05:55:59;21.00;95.90
34768;DHT22;21755;43.608;1.236;2023-08-12T05:58:24;21.10;95.80
34768;DHT22;21755;43.608;1.236;2023-08-12T06:00:50;21.10;94.90
34768;DHT22;21755;43.608;1.236;2023-08-12T06:03:16;21.20;93.90
34768;DHT22;21755;43.608;1.236;2023-08-12T06:05:44;21.30;93.20
34768;DHT22;21755;43.608;1.236;2023-08-12T06:08:11;21.30;91.70
34768;DHT22;21755;43.608;1.236;2023-08-12T06:10:37;21.30;91.60
34768;DHT22;21755;43.608;1.236;2023-08-12T06:13:03;21.30;91.90
34768;DHT22;21755;43.608;1.236;2023-08-12T06:15:29;21.20;92.50
34768;DHT22;21755;43.608;1.236;2023-08-12T06:17:55;21.20;93.30
34768;DHT22;21755;43.608;1.236;2023-08-12T06:20:21;21.30;93.40
34768;DHT22;21755;43.608;1.236;2023-08-12T06:22:46;21.40;91.40
34768;DHT22;21755;43.608;1.236;2023-08-12T06:25:12;21.30;91.40
34768;DHT22;21755;43.608;1.236;2023-08-12T06:27:38;21.40;91.40
34768;DHT22;21755;43.608;1.236;2023-08-12T06:30:04;21.50;89.80
34768;DHT22;21755;43.608;1.236;2023-08-12T06:32:33;21.50;85.00
34768;DHT22;21755;43.608;1.236;2023-08-12T06:34:59;21.60;82.50
34768;DHT22;21755;43.608;1.236;2023-08-12T06:37:24;21.60;76.10
34768;DHT22;21755;43.608;1.236;2023-08-12T06:39:50;21.80;73.20
34768;DHT22;21755;43.608;1.236;2023-08-12T06:49:00;22.10;61.50
34768;DHT22;21755;43.608;1.236;2023-08-12T06:51:26;22.20;56.90
34768;DHT22;21755;43.608;1.236;2023-08-12T06:53:51;22.30;54.10
34768;DHT22;21755;43.608;1.236;2023-08-12T06:56:17;22.30;51.70
34768;DHT22;21755;43.608;1.236;2023-08-12T06:58:43;22.40;44.60
34768;DHT22;21755;43.608;1.236;2023-08-12T07:01:09;22.50;45.00
34768;DHT22;21755;43.608;1.236;2023-08-12T07:03:35;22.70;38.70
34768;DHT22;21755;43.608;1.236;2023-08-12T07:06:00;22.70;20.70
34768;DHT22;21755;43.608;1.236;2023-08-12T07:08:26;22.70;17.20
34768;DHT22;21755;43.608;1.236;2023-08-12T07:10:53;22.70;19.20
34768;DHT22;21755;43.608;1.236;2023-08-12T07:13:19;22.80;15.00
34768;DHT22;21755;43.608;1.236;2023-08-12T07:15:44;22.90;9.80
34768;DHT22;21755;43.608;1.236;2023-08-12T07:18:10;22.90;11.10
34768;DHT22;21755;43.608;1.236;2023-08-12T07:20:36;23.10;5.60
34768;DHT22;21755;43.608;1.236;2023-08-12T07:23:02;23.20;1.80
34768;DHT22;21755;43.608;1.236;2023-08-12T07:25:28;23.30;1.00
34768;DHT22;21755;43.608;1.236;2023-08-12T07:27:53;23.50;1.00
34768;DHT22;21755;43.608;1.236;2023-08-12T07:30:19;23.50;1.00
34768;DHT22;21755;43.608;1.236;2023-08-12T07:32:45;23.70;1.00
34768;DHT22;21755;43.608;1.236;2023-08-12T07:35:14;23.80;1.00
34768;DHT22;21755;43.608;1.236;2023-08-12T07:37:58;23.80;1.00
34768;DHT22;21755;43.608;1.236;2023-08-12T07:40:42;23.80;1.00
34768;DHT22;21755;43.608;1.236;2023-08-12T07:43:08;23.90;1.00
34768;DHT22;21755;43.608;1.236;2023-08-12T07:45:34;23.90;1.00
34768;DHT22;21755;43.608;1.236;2023-08-12T07:47:59;24.10;1.00
34768;DHT22;21755;43.608;1.236;2023-08-12T07:50:25;24.10;1.00
34768;DHT22;21755;43.608;1.236;2023-08-12T07:52:51;24.50;1.00
34768;DHT22;21755;43.608;1.236;2023-08-12T07:55:18;24.60;1.00
34768;DHT22;21755;43.608;1.236;2023-08-12T07:57:45;24.80;1.00
34768;DHT22;21755;43.608;1.236;2023-08-12T08:00:11;24.90;99.90
34768;DHT22;21755;43.608;1.236;2023-08-12T08:02:38;24.80;99.90
34768;DHT22;21755;43.608;1.236;2023-08-12T08:05:04;24.60;99.90
34768;DHT22;21755;43.608;1.236;2023-08-12T08:07:30;24.50;1.00
34768;DHT22;21755;43.608;1.236;2023-08-12T08:09:57;24.50;1.00
34768;DHT22;21755;43.608;1.236;2023-08-12T08:12:23;24.70;1.00
34768;DHT22;21755;43.608;1.236;2023-08-12T08:14:49;24.70;99.90
34768;DHT22;21755;43.608;1.236;2023-08-12T08:17:15;24.90;99.90
34768;DHT22;21755;43.608;1.236;2023-08-12T08:19:40;25.10;99.90
34768;DHT22;21755;43.608;1.236;2023-08-12T08:22:06;25.40;99.90
34768;DHT22;21755;43.608;1.236;2023-08-12T08:24:32;25.40;99.90
34768;DHT22;21755;43.608;1.236;2023-08-12T08:26:58;25.50;99.90
34768;DHT22;21755;43.608;1.236;2023-08-12T08:29:24;25.70;99.90
34768;DHT22;21755;43.608;1.236;2023-08-12T08:31:50;25.80;99.90
34768;DHT22;21755;43.608;1.236;2023-08-12T08:34:16;25.80;99.90
34768;DHT22;21755;43.608;1.236;2023-08-12T08:36:42;25.90;99.90
34768;DHT22;21755;43.608;1.236;2023-08-12T08:39:08;26.10;99.90
34768;DHT22;21755;43.608;1.236;2023-08-12T08:41:38;26.10;49.20
34768;DHT22;21755;43.608;1.236;2023-08-12T08:44:07;26.10;1.00
34768;DHT22;21755;43.608;1.236;2023-08-12T08:46:34;26.40;99.90
34768;DHT22;21755;43.608;1.236;2023-08-12T08:49:00;26.70;99.90
34768;DHT22;21755;43.608;1.236;2023-08-12T08:51:32;26.70;99.90
34768;DHT22;21755;43.608;1.236;2023-08-12T08:53:58;26.70;99.90
34768;DHT22;21755;43.608;1.236;2023-08-12T08:56:24;26.80;99.90
34768;DHT22;21755;43.608;1.236;2023-08-12T08:58:50;26.70;99.90
34768;DHT22;21755;43.608;1.236;2023-08-12T09:01:19;26.80;99.90
34768;DHT22;21755;43.608;1.236;2023-08-12T09:03:46;27.20;99.90
34768;DHT22;21755;43.608;1.236;2023-08-12T09:06:13;27.30;4.90
34768;DHT22;21755;43.608;1.236;2023-08-12T09:08:40;27.60;99.90
34768;DHT22;21755;43.608;1.236;2023-08-12T09:11:08;27.60;99.90
34768;DHT22;21755;43.608;1.236;2023-08-12T09:13:35;27.70;1.00
34768;DHT22;21755;43.608;1.236;2023-08-12T09:16:00;27.70;99.90
34768;DHT22;21755;43.608;1.236;2023-08-12T09:18:26;27.80;91.90
34768;DHT22;21755;43.608;1.236;2023-08-12T09:20:55;27.80;99.90
34768;DHT22;21755;43.608;1.236;2023-08-12T09:23:21;27.90;99.90
34768;DHT22;21755;43.608;1.236;2023-08-12T09:25:47;28.00;1.00
34768;DHT22;21755;43.608;1.236;2023-08-12T09:28:13;28.10;99.90
34768;DHT22;21755;43.608;1.236;2023-08-12T09:30:39;28.20;99.90
34768;DHT22;21755;43.608;1.236;2023-08-12T09:33:07;28.40;99.90
34768;DHT22;21755;43.608;1.236;2023-08-12T09:35:42;28.40;81.50
34768;DHT22;21755;43.608;1.236;2023-08-12T09:38:13;28.60;37.30
34768;DHT22;21755;43.608;1.236;2023-08-12T09:40:40;28.70;99.90
34768;DHT22;21755;43.608;1.236;2023-08-12T09:43:06;28.70;99.90
34768;DHT22;21755;43.608;1.236;2023-08-12T09:45:33;28.90;99.90
34768;DHT22;21755;43.608;1.236;2023-08-12T09:47:59;29.10;95.80
34768;DHT22;21755;43.608;1.236;2023-08-12T09:50:26;29.10;79.10
34768;DHT22;21755;43.608;1.236;2023-08-12T09:52:54;28.90;26.60
34768;DHT22;21755;43.608;1.236;2023-08-12T09:55:22;29.00;1.00
34768;DHT22;21755;43.608;1.236;2023-08-12T09:57:51;29.20;1.00
34768;DHT22;21755;43.608;1.236;2023-08-12T10:00:21;29.40;1.00
34768;DHT22;21755;43.608;1.236;2023-08-12T10:02:49;29.20;99.90
34768;DHT22;21755;43.608;1.236;2023-08-12T10:05:21;29.30;99.90
34768;DHT22;21755;43.608;1.236;2023-08-12T10:07:48;29.50;99.90
34768;DHT22;21755;43.608;1.236;2023-08-12T10:10:14;29.50;99.90
34768;DHT22;21755;43.608;1.236;2023-08-12T10:12:41;29.60;99.90
34768;DHT22;21755;43.608;1.236;2023-08-12T10:15:08;29.70;99.90
34768;DHT22;21755;43.608;1.236;2023-08-12T10:17:35;29.60;99.90
34768;DHT22;21755;43.608;1.236;2023-08-12T10:20:03;29.60;99.90
34768;DHT22;21755;43.608;1.236;2023-08-12T10:22:33;29.70;99.90
34768;DHT22;21755;43.608;1.236;2023-08-12T10:25:02;29.70;99.90
34768;DHT22;21755;43.608;1.236;2023-08-12T10:27:28;29.70;99.90
34768;DHT22;21755;43.608;1.236;2023-08-12T10:29:57;29.90;99.90
34768;DHT22;21755;43.608;1.236;2023-08-12T10:32:24;30.10;99.90
34768;DHT22;21755;43.608;1.236;2023-08-12T10:35:00;30.20;99.90
34768;DHT22;21755;43.608;1.236;2023-08-12T10:37:26;30.40;45.10
34768;DHT22;21755;43.608;1.236;2023-08-12T10:39:53;30.30;3.70
34768;DHT22;21755;43.608;1.236;2023-08-12T10:42:47;30.50;1.00
34768;DHT22;21755;43.608;1.236;2023-08-12T10:45:17;30.40;1.00
34768;DHT22;21755;43.608;1.236;2023-08-12T10:48:17;30.50;1.00
34768;DHT22;21755;43.608;1.236;2023-08-12T10:50:49;30.60;1.00
34768;DHT22;21755;43.608;1.236;2023-08-12T10:53:28;30.70;1.00
34768;DHT22;21755;43.608;1.236;2023-08-12T10:55:56;30.70;1.00
34768;DHT22;21755;43.608;1.236;2023-08-12T10:58:45;30.80;1.00
34768;DHT22;21755;43.608;1.236;2023-08-12T11:01:15;30.90;1.00
34768;DHT22;21755;43.608;1.236;2023-08-12T11:03:45;31.10;1.00
34768;DHT22;21755;43.608;1.236;2023-08-12T11:06:11;31.10;1.00
34768;DHT22;21755;43.608;1.236;2023-08-12T11:08:52;31.10;1.00
34768;DHT22;21755;43.608;1.236;2023-08-12T11:11:23;30.90;1.00
34768;DHT22;21755;43.608;1.236;2023-08-12T11:13:58;30.90;1.00
34768;DHT22;21755;43.608;1.236;2023-08-12T11:16:37;31.30;1.00
34768;DHT22;21755;43.608;1.236;2023-08-12T11:19:04;31.30;1.00
34768;DHT22;21755;43.608;1.236;2023-08-12T11:21:30;31.20;1.00
34768;DHT22;21755;43.608;1.236;2023-08-12T11:23:56;31.10;99.90
34768;DHT22;21755;43.608;1.236;2023-08-12T11:26:25;31.00;99.90
34768;DHT22;21755;43.608;1.236;2023-08-12T11:28:51;31.20;1.00
34768;DHT22;21755;43.608;1.236;2023-08-12T11:31:18;31.60;99.90
34768;DHT22;21755;43.608;1.236;2023-08-12T11:33:44;31.50;99.90
34768;DHT22;21755;43.608;1.236;2023-08-12T11:36:10;31.70;99.90
34768;DHT22;21755;43.608;1.236;2023-08-12T11:38:37;31.70;99.90
34768;DHT22;21755;43.608;1.236;2023-08-12T11:41:03;31.70;99.90
34768;DHT22;21755;43.608;1.236;2023-08-12T11:43:31;31.60;99.90
34768;DHT22;21755;43.608;1.236;2023-08-12T11:45:57;31.70;99.90
34768;DHT22;21755;43.608;1.236;2023-08-12T11:48:24;31.90;99.90
34768;DHT22;21755;43.608;1.236;2023-08-12T11:50:50;31.90;99.90
34768;DHT22;21755;43.608;1.236;2023-08-12T11:53:16;32.00;99.90
34768;DHT22;21755;43.608;1.236;2023-08-12T11:55:42;32.20;99.90
34768;DHT22;21755;43.608;1.236;2023-08-12T11:58:08;32.40;99.90
34768;DHT22;21755;43.608;1.236;2023-08-12T12:00:34;32.50;99.90
34768;DHT22;21755;43.608;1.236;2023-08-12T12:03:00;32.30;99.90
34768;DHT22;21755;43.608;1.236;2023-08-12T12:05:29;32.40;99.90
34768;DHT22;21755;43.608;1.236;2023-08-12T12:08:00;32.50;99.90
34768;DHT22;21755;43.608;1.236;2023-08-12T12:10:31;32.20;99.90
34768;DHT22;21755;43.608;1.236;2023-08-12T12:12:58;32.20;99.90
34768;DHT22;21755;43.608;1.236;2023-08-12T12:15:24;32.20;99.90
34768;DHT22;21755;43.608;1.236;2023-08-12T12:17:50;32.60;99.90
34768;DHT22;21755;43.608;1.236;2023-08-12T12:20:16;32.80;99.90
34768;DHT22;21755;43.608;1.236;2023-08-12T12:22:44;32.70;99.90
34768;DHT22;21755;43.608;1.236;2023-08-12T12:25:12;32.80;99.90
34768;DHT22;21755;43.608;1.236;2023-08-12T12:27:39;32.90;99.90
34768;DHT22;21755;43.608;1.236;2023-08-12T12:30:10;32.90;99.90
34768;DHT22;21755;43.608;1.236;2023-08-12T12:32:36;33.10;99.90
34768;DHT22;21755;43.608;1.236;2023-08-12T12:35:03;33.40;99.90
34768;DHT22;21755;43.608;1.236;2023-08-12T12:37:29;33.40;99.90
34768;DHT22;21755;43.608;1.236;2023-08-12T12:39:55;33.40;99.90
34768;DHT22;21755;43.608;1.236;2023-08-12T12:42:21;33.20;99.90
34768;DHT22;21755;43.608;1.236;2023-08-12T12:44:47;32.80;99.90
34768;DHT22;21755;43.608;1.236;2023-08-12T12:47:13;32.40;99.90
34768;DHT22;21755;43.608;1.236;2023-08-12T12:49:39;32.40;99.90
34768;DHT22;21755;43.608;1.236;2023-08-12T12:52:07;32.70;99.90
34768;DHT22;21755;43.608;1.236;2023-08-12T12:54:33;32.80;99.90
34768;DHT22;21755;43.608;1.236;2023-08-12T12:56:59;32.50;99.90
34768;DHT22;21755;43.608;1.236;2023-08-12T12:59:24;32.40;99.90
34768;DHT22;21755;43.608;1.236;2023-08-12T13:01:50;32.60;99.90
34768;DHT22;21755;43.608;1.236;2023-08-12T13:04:16;32.40;99.90
34768;DHT22;21755;43.608;1.236;2023-08-12T13:06:42;32.30;99.90
34768;DHT22;21755;43.608;1.236;2023-08-12T13:09:08;32.20;99.90
34768;DHT22;21755;43.608;1.236;2023-08-12T13:11:34;32.30;99.90
34768;DHT22;21755;43.608;1.236;2023-08-12T13:14:03;32.90;99.90
34768;DHT22;21755;43.608;1.236;2023-08-12T13:16:29;33.10;99.90
34768;DHT22;21755;43.608;1.236;2023-08-12T13:18:56;33.20;99.90
34768;DHT22;21755;43.608;1.236;2023-08-12T13:21:24;33.10;99.90
34768;DHT22;21755;43.608;1.236;2023-08-12T13:23:50;33.60;99.90
34768;DHT22;21755;43.608;1.236;2023-08-12T13:26:17;33.60;99.90
34768;DHT22;21755;43.608;1.236;2023-08-12T13:28:43;33.70;99.90
34768;DHT22;21755;43.608;1.236;2023-08-12T13:31:09;33.60;99.90
34768;DHT22;21755;43.608;1.236;2023-08-12T13:33:35;33.50;99.90
34768;DHT22;21755;43.608;1.236;2023-08-12T13:36:01;33.60;99.90
34768;DHT22;21755;43.608;1.236;2023-08-12T13:38:27;33.40;99.90
34768;DHT22;21755;43.608;1.236;2023-08-12T13:40:53;33.10;99.90
34768;DHT22;21755;43.608;1.236;2023-08-12T13:43:18;33.10;99.90
34768;DHT22;21755;43.608;1.236;2023-08-12T13:45:44;32.90;99.90
34768;DHT22;21755;43.608;1.236;2023-08-12T13:48:10;32.80;99.90
34768;DHT22;21755;43.608;1.236;2023-08-12T13:50:36;32.90;99.90
34768;DHT22;21755;43.608;1.236;2023-08-12T13:53:02;32.90;99.90
34768;DHT22;21755;43.608;1.236;2023-08-12T13:55:28;33.00;99.90
34768;DHT22;21755;43.608;1.236;2023-08-12T13:57:54;32.90;99.90
34768;DHT22;21755;43.608;1.236;2023-08-12T14:00:20;33.00;99.90
34768;DHT22;21755;43.608;1.236;2023-08-12T14:02:46;33.00;99.90
34768;DHT22;21755;43.608;1.236;2023-08-12T14:05:14;32.80;99.90
34768;DHT22;21755;43.608;1.236;2023-08-12T14:07:40;32.70;99.90
34768;DHT22;21755;43.608;1.236;2023-08-12T14:10:07;32.70;99.90
34768;DHT22;21755;43.608;1.236;2023-08-12T14:12:34;32.60;99.90
34768;DHT22;21755;43.608;1.236;2023-08-12T14:15:00;32.50;99.90
34768;DHT22;21755;43.608;1.236;2023-08-12T14:17:25;32.40;99.90
34768;DHT22;21755;43.608;1.236;2023-08-12T14:19:51;32.30;99.90
34768;DHT22;21755;43.608;1.236;2023-08-12T14:22:19;32.20;99.90
34768;DHT22;21755;43.608;1.236;2023-08-12T14:24:45;32.20;99.90
34768;DHT22;21755;43.608;1.236;2023-08-12T14:27:14;32.10;99.90
34768;DHT22;21755;43.608;1.236;2023-08-12T14:29:40;32.10;99.90
34768;DHT22;21755;43.608;1.236;2023-08-12T14:32:06;32.10;99.90
34768;DHT22;21755;43.608;1.236;2023-08-12T14:34:31;32.00;99.90
34768;DHT22;21755;43.608;1.236;2023-08-12T14:36:57;32.10;99.90
34768;DHT22;21755;43.608;1.236;2023-08-12T14:39:23;32.10;99.90
34768;DHT22;21755;43.608;1.236;2023-08-12T14:41:49;32.10;99.90
34768;DHT22;21755;43.608;1.236;2023-08-12T14:44:15;32.00;99.90
34768;DHT22;21755;43.608;1.236;2023-08-12T14:46:41;32.10;99.90
34768;DHT22;21755;43.608;1.236;2023-08-12T14:49:07;32.20;99.90
34768;DHT22;21755;43.608;1.236;2023-08-12T14:51:33;32.40;99.90
34768;DHT22;21755;43.608;1.236;2023-08-12T14:53:58;32.80;99.90
34768;DHT22;21755;43.608;1.236;2023-08-12T14:56:24;32.80;99.90
34768;DHT22;21755;43.608;1.236;2023-08-12T14:58:50;32.40;99.90
34768;DHT22;21755;43.608;1.236;2023-08-12T15:01:16;32.30;99.90
34768;DHT22;21755;43.608;1.236;2023-08-12T15:03:42;32.30;99.90
34768;DHT22;21755;43.608;1.236;2023-08-12T15:06:08;32.50;99.90
34768;DHT22;21755;43.608;1.236;2023-08-12T15:08:33;32.60;99.90
34768;DHT22;21755;43.608;1.236;2023-08-12T15:10:59;32.70;99.90
34768;DHT22;21755;43.608;1.236;2023-08-12T15:13:25;32.90;99.90
34768;DHT22;21755;43.608;1.236;2023-08-12T15:15:51;32.90;99.90
34768;DHT22;21755;43.608;1.236;2023-08-12T15:18:18;32.90;99.90
34768;DHT22;21755;43.608;1.236;2023-08-12T15:20:44;33.10;99.90
34768;DHT22;21755;43.608;1.236;2023-08-12T15:23:11;33.20;99.90
34768;DHT22;21755;43.608;1.236;2023-08-12T15:25:37;33.30;99.90
34768;DHT22;21755;43.608;1.236;2023-08-12T15:28:03;33.50;99.90
34768;DHT22;21755;43.608;1.236;2023-08-12T15:30:29;33.50;99.90
34768;DHT22;21755;43.608;1.236;2023-08-12T15:32:55;33.60;99.90
34768;DHT22;21755;43.608;1.236;2023-08-12T15:35:21;33.90;99.90
34768;DHT22;21755;43.608;1.236;2023-08-12T15:37:47;33.90;99.90
34768;DHT22;21755;43.608;1.236;2023-08-12T15:40:13;33.90;99.90
34768;DHT22;21755;43.608;1.236;2023-08-12T15:42:39;33.80;99.90